Time;durP1;ratioP1;P1;durP2;ratioP2;P2;SDS_P1;SDS_P2;PMS_P1;PMS_P2;Temp;Humidity;BMP_temperature;BMP_pressure;BME280_temperature;BME280_humidity;BME280_pressure;Samples;Min_cycle;Max_cycle;Signal;HPM_P1;HPM_P2
2021/09/07 00:00:32;;;;;;;9.00;4.55;;;8.60;78.40;;;;;;6217011;23;20421;-94
2021/09/07 00:02:57;;;;;;;11.77;5.60;;;8.50;78.50;;;;;;6217027;23;20127;-93
2021/09/07 00:05:23;;;;;;;8.00;4.55;;;8.50;78.90;;;;;;6217194;23;20003;-93
2021/09/07 00:07:49;;;;;;;8.95;5.07;;;8.50;78.90;;;;;;6216742;23;20439;-93
2021/09/07 00:10:15;;;;;;;9.52;4.63;;;8.50;79.30;;;;;;6216902;23;20000;-93
2021/09/07 00:12:42;;;;;;;7.63;4.43;;;8.50;79.50;;;;;;6190176;23;20035;-94
2021/09/07 00:15:10;;;;;;;6.95;4.28;;;8.50;79.50;;;;;;6190600;23;20020;-94
2021/09/07 00:17:36;;;;;;;8.02;4.30;;;8.40;79.60;;;;;;6216743;23;19993;-94
2021/09/07 00:20:02;;;;;;;8.93;4.68;;;8.40;80.10;;;;;;6217293;23;20404;-94
2021/09/07 00:22:28;;;;;;;8.45;4.70;;;8.40;80.20;;;;;;6216867;23;20005;-93
2021/09/07 00:24:54;;;;;;;8.57;5.50;;;8.40;80.60;;;;;;6217352;23;20003;-94
2021/09/07 00:27:19;;;;;;;10.20;4.63;;;8.30;80.40;;;;;;6218631;23;19999;-93
2021/09/07 00:29:45;;;;;;;8.73;4.30;;;8.30;80.40;;;;;;6192875;23;20092;-94
2021/09/07 00:32:11;;;;;;;6.60;4.15;;;8.30;80.80;;;;;;6218967;23;20328;-94
2021/09/07 00:34:37;;;;;;;8.07;4.25;;;8.30;80.80;;;;;;6218853;23;20459;-93
2021/09/07 00:37:03;;;;;;;6.40;3.35;;;8.30;80.80;;;;;;6225401;23;20015;-92
2021/09/07 00:39:29;;;;;;;7.53;3.97;;;8.30;80.70;;;;;;6238072;23;20024;-91
2021/09/07 00:41:55;;;;;;;5.63;3.47;;;8.20;80.60;;;;;;6203608;23;20005;-94
2021/09/07 00:44:25;;;;;;;8.10;4.10;;;8.20;80.70;;;;;;6221149;23;20000;-94
2021/09/07 00:46:56;;;;;;;13.50;4.35;;;8.30;80.90;;;;;;6228350;23;19993;-94
2021/09/07 00:49:23;;;;;;;5.15;3.70;;;8.30;80.70;;;;;;6202788;23;20056;-94
2021/09/07 00:51:53;;;;;;;5.90;3.33;;;8.20;80.80;;;;;;6208403;23;20044;-95
2021/09/07 00:54:20;;;;;;;4.18;3.60;;;8.20;81.40;;;;;;6221736;23;20001;-95
2021/09/07 00:56:46;;;;;;;6.03;3.40;;;8.20;81.10;;;;;;6218714;23;19993;-94
2021/09/07 00:59:13;;;;;;;7.63;3.72;;;8.20;81.20;;;;;;6192310;23;20059;-94
2021/09/07 01:01:39;;;;;;;7.47;3.63;;;8.20;81.10;;;;;;6218626;23;20068;-94
2021/09/07 01:04:04;;;;;;;6.35;3.60;;;8.20;81.20;;;;;;6218508;23;20480;-94
2021/09/07 01:06:31;;;;;;;7.20;3.83;;;8.20;81.20;;;;;;6217948;23;20001;-94
2021/09/07 01:08:57;;;;;;;6.70;3.83;;;8.20;81.30;;;;;;6192440;23;20008;-94
2021/09/07 01:11:24;;;;;;;6.03;3.30;;;8.20;81.40;;;;;;6218547;23;20416;-94
2021/09/07 01:13:50;;;;;;;12.25;4.70;;;8.20;81.50;;;;;;6218419;23;20000;-93
2021/09/07 01:16:16;;;;;;;7.25;4.35;;;8.10;82.30;;;;;;6218396;23;19997;-93
2021/09/07 01:18:42;;;;;;;9.90;4.25;;;8.10;82.30;;;;;;6218108;23;20003;-94
2021/09/07 01:21:12;;;;;;;8.88;5.05;;;8.10;82.20;;;;;;6218353;23;20008;-94
2021/09/07 01:23:44;;;;;;;6.97;3.97;;;8.10;82.60;;;;;;6192102;23;20036;-94
2021/09/07 01:26:11;;;;;;;7.97;5.05;;;8.10;83.20;;;;;;6191943;23;20004;-93
2021/09/07 01:28:38;;;;;;;8.88;5.60;;;8.10;83.40;;;;;;6218316;23;20001;-94
2021/09/07 01:31:06;;;;;;;8.45;5.53;;;8.10;83.40;;;;;;6191505;23;20096;-94
2021/09/07 01:33:31;;;;;;;10.93;5.65;;;8.10;83.60;;;;;;6218160;23;20004;-94
2021/09/07 01:35:58;;;;;;;10.27;4.93;;;8.00;83.70;;;;;;6218438;23;20055;-95
2021/09/07 01:38:25;;;;;;;8.35;4.28;;;8.10;84.30;;;;;;6191700;23;20055;-94
2021/09/07 01:40:52;;;;;;;8.07;5.40;;;8.10;84.20;;;;;;6218435;23;19996;-95
2021/09/07 01:43:18;;;;;;;11.02;5.28;;;8.10;84.60;;;;;;6193637;23;20324;-94
2021/09/07 01:45:48;;;;;;;10.93;5.75;;;8.20;84.20;;;;;;6220572;23;19996;-93
2021/09/07 01:48:18;;;;;;;12.85;5.90;;;8.20;84.10;;;;;;6205982;23;20064;-91
2021/09/07 01:50:44;;;;;;;17.88;5.45;;;8.20;84.10;;;;;;6208907;23;20001;-91
2021/09/07 01:53:10;;;;;;;10.23;6.25;;;8.30;83.90;;;;;;6233747;23;20000;-92
2021/09/07 01:55:36;;;;;;;10.98;6.30;;;8.40;84.00;;;;;;6191937;23;20004;-94
2021/09/07 01:58:02;;;;;;;15.23;9.23;;;8.40;83.70;;;;;;6191460;23;20428;-92
2021/09/07 02:00:28;;;;;;;17.20;8.90;;;8.50;83.50;;;;;;6191515;23;20425;-93
2021/09/07 02:02:53;;;;;;;20.30;11.23;;;8.50;83.60;;;;;;6217733;23;20000;-95
2021/09/07 02:05:19;;;;;;;20.70;10.20;;;8.50;83.70;;;;;;6191463;23;20008;-95
2021/09/07 02:07:45;;;;;;;21.02;10.95;;;8.50;83.60;;;;;;6191651;23;20096;-94
2021/09/07 02:10:11;;;;;;;20.13;9.77;;;8.60;83.90;;;;;;6217502;23;20035;-93
2021/09/07 02:12:37;;;;;;;15.57;8.00;;;8.60;83.80;;;;;;6217692;23;20411;-94
2021/09/07 02:15:04;;;;;;;14.40;6.05;;;8.60;83.50;;;;;;6217893;23;20032;-94
2021/09/07 02:17:30;;;;;;;13.80;6.45;;;8.60;83.70;;;;;;6217914;23;19996;-94
2021/09/07 02:19:56;;;;;;;10.07;6.43;;;8.60;83.50;;;;;;6191256;23;20000;-92
2021/09/07 02:22:22;;;;;;;12.15;6.30;;;8.60;83.40;;;;;;6190848;23;20005;-92
2021/09/07 02:24:48;;;;;;;13.07;6.57;;;8.60;83.20;;;;;;6191286;23;20092;-94
2021/09/07 02:27:14;;;;;;;13.30;6.68;;;8.70;83.30;;;;;;6217712;23;20447;-94
2021/09/07 02:29:40;;;;;;;12.52;7.18;;;8.60;83.20;;;;;;6190866;23;20000;-94
2021/09/07 02:32:09;;;;;;;14.35;7.38;;;8.60;83.30;;;;;;6217332;23;20095;-93
2021/09/07 02:34:35;;;;;;;13.93;7.68;;;8.70;83.30;;;;;;6217211;23;20005;-94
2021/09/07 02:37:01;;;;;;;11.30;6.45;;;8.60;83.50;;;;;;6190774;23;20091;-93
2021/09/07 02:39:27;;;;;;;13.20;7.50;;;8.60;84.10;;;;;;6191081;23;20008;-92
2021/09/07 02:41:53;;;;;;;11.73;7.03;;;8.60;83.80;;;;;;6217569;23;19993;-94
2021/09/07 02:44:19;;;;;;;12.63;5.25;;;8.60;83.60;;;;;;6217109;23;20317;-93
2021/09/07 02:46:45;;;;;;;9.90;5.18;;;8.60;83.60;;;;;;6217399;23;20070;-94
2021/09/07 02:49:12;;;;;;;8.50;6.07;;;8.60;83.60;;;;;;6191526;23;19997;-94
2021/09/07 02:51:37;;;;;;;5.93;3.60;;;8.60;83.40;;;;;;6192061;23;20004;-93
2021/09/07 02:54:03;;;;;;;12.23;5.97;;;8.60;83.30;;;;;;6219083;23;20027;-93
2021/09/07 02:56:29;;;;;;;8.95;4.40;;;8.60;83.20;;;;;;6210359;23;20004;-91
2021/09/07 02:58:55;;;;;;;11.93;6.18;;;8.60;83.20;;;;;;6207168;23;20004;-91
2021/09/07 03:01:20;;;;;;;8.88;4.32;;;8.50;83.70;;;;;;6229684;23;20055;-93
2021/09/07 03:03:46;;;;;;;7.90;4.93;;;8.50;83.10;;;;;;6190936;23;20035;-92
2021/09/07 03:06:12;;;;;;;10.27;5.07;;;8.40;83.60;;;;;;6190682;23;19997;-93
2021/09/07 03:08:37;;;;;;;14.18;7.03;;;8.40;83.60;;;;;;6190914;23;20009;-92
2021/09/07 03:11:03;;;;;;;8.55;5.88;;;8.30;84.00;;;;;;6217198;23;20001;-94
2021/09/07 03:13:29;;;;;;;8.02;4.88;;;8.20;84.00;;;;;;6217180;23;20001;-94
2021/09/07 03:15:55;;;;;;;9.07;4.82;;;8.10;84.00;;;;;;6217505;23;20003;-94
2021/09/07 03:18:20;;;;;;;9.10;5.22;;;8.10;84.20;;;;;;6191000;23;20357;-93
2021/09/07 03:20:46;;;;;;;8.75;4.38;;;8.00;84.50;;;;;;6217175;23;20001;-93
2021/09/07 03:23:12;;;;;;;9.30;5.07;;;7.90;84.60;;;;;;6191687;23;19997;-94
2021/09/07 03:25:38;;;;;;;9.07;5.85;;;7.90;84.90;;;;;;6195490;23;20005;-93
2021/09/07 03:28:03;;;;;;;16.13;8.55;;;7.90;84.70;;;;;;6194085;23;20039;-93
2021/09/07 03:30:29;;;;;;;14.05;8.15;;;7.80;84.90;;;;;;6191016;23;20012;-94
2021/09/07 03:32:55;;;;;;;22.40;9.63;;;7.80;85.10;;;;;;6190617;23;20474;-93
2021/09/07 03:35:21;;;;;;;16.00;6.82;;;7.70;85.50;;;;;;6217172;23;20004;-94
2021/09/07 03:37:47;;;;;;;17.50;8.50;;;7.70;85.40;;;;;;6216960;23;20004;-94
2021/09/07 03:40:13;;;;;;;11.85;6.82;;;7.70;85.70;;;;;;6217310;23;20028;-94
2021/09/07 03:42:40;;;;;;;9.38;5.60;;;7.60;85.80;;;;;;6190951;23;20009;-94
2021/09/07 03:45:08;;;;;;;12.45;6.38;;;7.60;85.70;;;;;;6191340;23;20005;-94
2021/09/07 03:47:34;;;;;;;11.40;5.50;;;7.60;85.90;;;;;;6217659;23;20409;-94
2021/09/07 03:50:00;;;;;;;7.45;4.47;;;7.60;86.00;;;;;;6217405;23;19997;-93
2021/09/07 03:52:25;;;;;;;8.45;5.30;;;7.60;86.00;;;;;;6190749;23;20008;-93
2021/09/07 03:54:51;;;;;;;7.97;5.32;;;7.60;86.20;;;;;;6190984;23;20008;-93
2021/09/07 03:57:17;;;;;;;13.70;6.60;;;7.50;86.30;;;;;;6219265;23;20489;-93
2021/09/07 03:59:42;;;;;;;16.73;8.15;;;7.50;86.50;;;;;;6194127;23;20004;-93
2021/09/07 04:02:08;;;;;;;12.77;6.13;;;7.50;86.40;;;;;;6225403;23;20009;-91
2021/09/07 04:04:34;;;;;;;12.18;5.63;;;7.50;86.40;;;;;;6239844;23;20004;-91
2021/09/07 04:06:59;;;;;;;8.05;4.72;;;7.50;86.60;;;;;;6236968;23;20004;-92
2021/09/07 04:09:25;;;;;;;10.50;4.95;;;7.50;86.60;;;;;;6229055;23;20412;-95
2021/09/07 04:11:51;;;;;;;5.85;4.20;;;7.60;86.80;;;;;;6218899;23;20007;-94
2021/09/07 04:14:17;;;;;;;8.25;4.97;;;7.70;86.70;;;;;;6192399;23;20004;-95
2021/09/07 04:16:43;;;;;;;13.35;6.03;;;7.70;86.60;;;;;;6192391;23;20000;-96
2021/09/07 04:19:10;;;;;;;17.65;7.82;;;7.80;86.70;;;;;;6218967;23;20003;-95
2021/09/07 04:21:36;;;;;;;17.70;8.65;;;7.80;86.60;;;;;;6192601;23;20004;-94
2021/09/07 04:24:03;;;;;;;13.23;6.78;;;7.90;86.30;;;;;;6192651;23;20001;-95
2021/09/07 04:26:30;;;;;;;11.68;6.32;;;7.90;86.10;;;;;;6220666;23;20051;-95
2021/09/07 04:28:57;;;;;;;12.05;6.82;;;8.00;86.10;;;;;;6219121;23;19996;-94
2021/09/07 04:31:22;;;;;;;9.75;5.68;;;8.20;85.90;;;;;;6219429;23;20047;-94
2021/09/07 04:33:48;;;;;;;8.48;5.03;;;8.30;85.50;;;;;;6220114;23;19997;-95
2021/09/07 04:36:14;;;;;;;8.48;4.32;;;8.40;85.20;;;;;;6218748;23;20019;-94
2021/09/07 04:38:39;;;;;;;7.97;4.65;;;8.60;84.80;;;;;;6192160;23;20024;-96
2021/09/07 04:41:05;;;;;;;7.70;5.10;;;8.70;84.40;;;;;;6192531;23;20015;-96
2021/09/07 04:43:31;;;;;;;7.35;3.97;;;8.80;84.20;;;;;;6220950;23;20416;-94
2021/09/07 04:45:57;;;;;;;7.60;4.78;;;9.00;83.90;;;;;;6219384;23;20409;-95
2021/09/07 04:48:22;;;;;;;8.30;4.85;;;9.20;83.40;;;;;;6192630;23;20088;-94
2021/09/07 04:50:48;;;;;;;6.45;3.97;;;9.30;82.80;;;;;;6219733;23;20290;-95
2021/09/07 04:53:14;;;;;;;8.05;4.00;;;9.40;82.20;;;;;;6220086;23;20005;-95
2021/09/07 04:55:40;;;;;;;5.00;3.22;;;9.60;82.10;;;;;;6192808;23;20040;-95
2021/09/07 04:58:05;;;;;;;6.68;4.10;;;9.70;81.80;;;;;;6193818;23;20001;-95
2021/09/07 05:00:31;;;;;;;11.20;5.20;;;9.80;81.50;;;;;;6192913;23;19996;-94
2021/09/07 05:02:57;;;;;;;9.52;4.80;;;10.00;81.30;;;;;;6221222;23;20408;-95
2021/09/07 05:05:22;;;;;;;9.02;5.22;;;10.10;81.00;;;;;;6221009;23;20072;-95
2021/09/07 05:07:48;;;;;;;7.25;4.70;;;10.20;80.60;;;;;;6224056;23;19993;-95
2021/09/07 05:10:14;;;;;;;12.32;5.93;;;10.40;80.20;;;;;;6197349;23;20005;-92
2021/09/07 05:12:40;;;;;;;8.50;5.63;;;10.60;79.90;;;;;;6230179;23;20011;-92
2021/09/07 05:15:07;;;;;;;13.52;7.25;;;10.70;79.40;;;;;;6231740;23;19996;-90
2021/09/07 05:17:33;;;;;;;11.15;5.40;;;10.90;78.80;;;;;;6224003;23;19997;-94
2021/09/07 05:19:59;;;;;;;18.48;6.63;;;11.10;78.20;;;;;;6192415;23;20340;-95
2021/09/07 05:22:25;;;;;;;11.05;5.90;;;11.20;77.60;;;;;;6194303;23;20388;-95
2021/09/07 05:24:51;;;;;;;7.78;4.60;;;11.30;76.80;;;;;;6191361;23;20011;-94
2021/09/07 05:27:16;;;;;;;6.43;4.18;;;11.50;76.30;;;;;;6217635;23;20340;-95
2021/09/07 05:29:42;;;;;;;8.23;4.57;;;11.60;75.80;;;;;;6217293;23;20047;-95
2021/09/07 05:32:10;;;;;;;6.03;4.38;;;11.80;75.40;;;;;;6217673;23;20016;-95
2021/09/07 05:34:36;;;;;;;5.75;3.85;;;11.90;75.00;;;;;;6217252;23;20001;-95
2021/09/07 05:37:02;;;;;;;4.18;3.17;;;12.10;74.70;;;;;;6217934;23;20007;-94
2021/09/07 05:39:28;;;;;;;7.65;4.47;;;12.20;73.90;;;;;;6218172;23;20071;-95
2021/09/07 05:41:54;;;;;;;5.72;3.70;;;12.40;73.60;;;;;;6192008;23;20411;-93
2021/09/07 05:44:21;;;;;;;7.30;4.15;;;12.50;73.10;;;;;;6218033;23;19997;-94
2021/09/07 05:46:47;;;;;;;5.45;3.78;;;12.70;71.90;;;;;;6224167;23;20000;-94
2021/09/07 05:49:13;;;;;;;9.32;3.88;;;12.80;71.70;;;;;;6191947;23;20001;-96
2021/09/07 05:51:41;;;;;;;6.40;3.72;;;12.90;71.50;;;;;;6219653;23;20035;-95
2021/09/07 05:54:07;;;;;;;9.25;4.20;;;13.00;71.00;;;;;;6218053;23;20036;-92
2021/09/07 05:56:33;;;;;;;5.90;3.40;;;13.10;70.50;;;;;;6193379;23;20091;-92
2021/09/07 05:58:59;;;;;;;7.32;4.28;;;13.30;69.60;;;;;;6217403;23;20005;-94
2021/09/07 06:01:25;;;;;;;6.22;4.05;;;13.40;68.30;;;;;;6189607;23;20087;-92
2021/09/07 06:03:51;;;;;;;7.75;3.28;;;13.50;68.60;;;;;;6190023;23;20062;-93
2021/09/07 06:06:17;;;;;;;5.80;3.38;;;13.60;67.20;;;;;;6190315;23;20424;-92
2021/09/07 06:08:43;;;;;;;6.43;3.90;;;13.60;66.60;;;;;;6191887;23;20027;-95
2021/09/07 06:11:09;;;;;;;8.07;3.90;;;13.70;66.40;;;;;;6190985;23;20023;-94
2021/09/07 06:13:36;;;;;;;5.03;4.00;;;13.80;65.40;;;;;;6218463;23;20364;-94
2021/09/07 06:16:02;;;;;;;7.57;3.88;;;13.90;64.80;;;;;;6190887;23;20340;-94
2021/09/07 06:18:28;;;;;;;6.22;3.83;;;14.00;65.40;;;;;;6198056;23;20013;-91
2021/09/07 06:20:55;;;;;;;6.53;3.03;;;14.10;65.40;;;;;;6230925;23;20008;-91
2021/09/07 06:23:21;;;;;;;5.35;3.55;;;14.30;65.20;;;;;;6203222;23;20502;-91
2021/09/07 06:25:47;;;;;;;6.47;3.60;;;14.50;65.00;;;;;;6194858;23;20024;-93
2021/09/07 06:28:13;;;;;;;5.65;3.72;;;14.60;63.70;;;;;;6216212;23;20023;-94
2021/09/07 06:30:39;;;;;;;8.27;4.63;;;14.80;62.90;;;;;;6216407;23;20016;-95
2021/09/07 06:33:05;;;;;;;5.95;3.55;;;14.80;62.00;;;;;;6216274;23;20020;-95
2021/09/07 06:35:31;;;;;;;6.40;3.70;;;14.90;61.60;;;;;;6191841;23;20430;-94
2021/09/07 06:37:57;;;;;;;6.15;4.25;;;14.90;61.60;;;;;;6190736;23;20146;-93
2021/09/07 06:40:23;;;;;;;4.95;3.67;;;15.00;61.40;;;;;;6216201;23;20290;-94
2021/09/07 06:42:49;;;;;;;6.72;4.40;;;15.10;60.60;;;;;;6189247;23;20012;-93
2021/09/07 06:45:16;;;;;;;6.68;3.28;;;15.20;60.90;;;;;;6217043;23;20001;-94
2021/09/07 06:47:41;;;;;;;4.60;3.47;;;15.40;60.50;;;;;;6190990;23;20008;-92
2021/09/07 06:50:07;;;;;;;5.38;3.63;;;15.50;58.70;;;;;;6218593;23;19992;-95
2021/09/07 06:52:33;;;;;;;8.07;4.05;;;15.50;58.40;;;;;;6192156;23;20155;-94
2021/09/07 06:54:59;;;;;;;4.88;3.78;;;15.50;58.10;;;;;;6227038;23;20008;-92
2021/09/07 06:57:26;;;;;;;4.93;3.35;;;15.60;58.40;;;;;;6227770;23;20003;-93
2021/09/07 06:59:53;;;;;;;6.63;3.88;;;15.70;58.30;;;;;;6228033;23;20011;-95
2021/09/07 07:02:19;;;;;;;6.30;4.05;;;15.80;57.50;;;;;;6191537;23;20005;-94
2021/09/07 07:04:45;;;;;;;4.97;3.13;;;15.90;56.50;;;;;;6193734;23;20013;-95
2021/09/07 07:07:11;;;;;;;4.40;3.20;;;16.00;56.30;;;;;;6218205;23;20081;-95
2021/09/07 07:09:39;;;;;;;4.18;3.00;;;16.10;55.80;;;;;;6216193;23;20099;-94
2021/09/07 07:12:05;;;;;;;6.32;3.17;;;16.10;54.60;;;;;;6193561;23;20033;-95
2021/09/07 07:14:31;;;;;;;4.95;3.25;;;16.20;55.00;;;;;;6198727;23;20039;-95
2021/09/07 07:16:57;;;;;;;4.63;3.03;;;16.30;55.30;;;;;;6192257;23;20012;-96
2021/09/07 07:19:23;;;;;;;4.68;3.13;;;16.50;55.20;;;;;;6229066;22;20012;-96
2021/09/07 07:21:49;;;;;;;3.85;3.25;;;16.70;54.50;;;;;;6192066;23;20063;-95
2021/09/07 07:24:16;;;;;;;5.00;3.10;;;16.80;54.00;;;;;;6197903;23;20064;-95
2021/09/07 07:26:45;;;;;;;3.42;2.67;;;16.90;54.20;;;;;;6202641;23;20016;-94
2021/09/07 07:29:12;;;;;;;4.07;3.15;;;16.90;54.00;;;;;;6213614;23;20000;-94
2021/09/07 07:31:39;;;;;;;8.23;3.70;;;17.00;53.80;;;;;;6237164;23;20027;-94
2021/09/07 07:34:07;;;;;;;3.60;3.10;;;17.10;53.60;;;;;;6233686;23;20001;-96
2021/09/07 07:36:34;;;;;;;3.95;2.80;;;17.10;52.70;;;;;;6198387;23;20071;-96
2021/09/07 07:39:01;;;;;;;6.63;3.10;;;17.10;52.60;;;;;;6174415;23;20008;-95
2021/09/07 07:41:28;;;;;;;3.20;2.83;;;17.20;52.40;;;;;;6222026;23;20001;-96
2021/09/07 07:43:55;;;;;;;3.83;2.75;;;17.30;52.40;;;;;;6221180;23;20004;-96
2021/09/07 07:46:21;;;;;;;5.90;3.10;;;17.50;52.40;;;;;;6199403;22;20061;-96
2021/09/07 07:48:47;;;;;;;5.25;3.40;;;17.60;52.50;;;;;;6220207;23;20353;-95
2021/09/07 07:51:14;;;;;;;4.75;3.47;;;17.80;52.70;;;;;;6188946;23;20120;-95
2021/09/07 07:53:40;;;;;;;6.25;3.50;;;17.90;52.70;;;;;;6216729;23;20395;-95
2021/09/07 07:56:07;;;;;;;6.45;3.90;;;18.00;52.90;;;;;;6189633;23;20000;-95
2021/09/07 07:58:34;;;;;;;4.72;3.45;;;18.10;52.90;;;;;;6192074;23;20019;-95
2021/09/07 08:01:00;;;;;;;5.93;3.72;;;18.20;53.20;;;;;;6192600;23;20459;-96
2021/09/07 08:03:26;;;;;;;5.50;3.35;;;18.20;53.40;;;;;;6217372;23;20080;-96
2021/09/07 08:05:52;;;;;;;6.03;4.15;;;18.20;53.60;;;;;;6195259;23;20001;-95
2021/09/07 08:08:20;;;;;;;7.10;3.55;;;18.20;53.30;;;;;;6199511;23;20008;-95
2021/09/07 08:10:48;;;;;;;4.78;3.35;;;18.10;53.20;;;;;;6221861;23;20332;-96
2021/09/07 08:13:14;;;;;;;8.18;4.13;;;18.00;52.90;;;;;;6193672;23;20016;-96
2021/09/07 08:15:40;;;;;;;6.13;4.32;;;18.00;53.50;;;;;;6191562;23;20447;-94
2021/09/07 08:18:06;;;;;;;6.80;4.30;;;17.80;54.00;;;;;;6191763;23;20017;-94
2021/09/07 08:20:42;;;;;;;4.90;3.83;;;17.70;54.10;;;;;;6198182;23;20001;-93
2021/09/07 08:23:10;;;;;;;4.63;3.85;;;17.70;54.40;;;;;;6223243;23;20104;-96
2021/09/07 08:25:36;;;;;;;5.30;3.20;;;17.70;54.60;;;;;;6192660;23;19997;-94
2021/09/07 08:28:02;;;;;;;4.72;3.75;;;17.80;54.60;;;;;;6197101;23;20011;-96
2021/09/07 08:30:27;;;;;;;8.55;4.10;;;17.90;54.40;;;;;;6224775;23;20020;-96
2021/09/07 08:32:57;;;;;;;6.30;4.30;;;18.10;54.60;;;;;;6198849;23;20436;-95
2021/09/07 08:35:51;;;;;;;7.47;4.65;;;18.20;54.50;;;;;;6231850;23;20001;-94
2021/09/07 08:41:12;;;;;;;9.45;5.72;;;18.40;54.20;;;;;;6213691;22;20043;-95
2021/09/07 08:43:51;;;;;;;5.72;4.47;;;18.50;54.20;;;;;;6233158;23;20004;-92
2021/09/07 08:52:44;;;;;;;6.65;4.70;;;18.60;53.90;;;;;;6216746;23;20077;-96
2021/09/07 08:58:03;;;;;;;5.97;4.70;;;18.70;53.50;;;;;;6171617;23;20005;-95
2021/09/07 09:00:34;;;;;;;10.20;4.57;;;18.70;53.60;;;;;;6218336;23;20000;-96
2021/09/07 09:03:21;;;;;;;6.72;4.50;;;18.70;53.20;;;;;;6231509;23;20012;-93
2021/09/07 09:05:50;;;;;;;5.80;4.00;;;18.60;52.80;;;;;;6236391;23;20059;-94
2021/09/07 09:08:19;;;;;;;5.43;4.10;;;18.60;52.60;;;;;;6206636;23;20004;-95
2021/09/07 09:11:02;;;;;;;5.13;3.70;;;18.60;51.60;;;;;;6228279;23;19996;-95
2021/09/07 09:13:50;;;;;;;5.88;3.80;;;18.60;51.70;;;;;;6200431;23;20089;-96
2021/09/07 09:16:21;;;;;;;6.20;4.00;;;18.50;51.80;;;;;;6207626;23;19989;-95
2021/09/07 09:22:04;;;;;;;6.50;4.43;;;18.70;52.00;;;;;;6226536;22;20325;-93
2021/09/07 09:24:52;;;;;;;5.97;4.68;;;18.70;51.80;;;;;;6212856;23;20023;-95
2021/09/07 09:30:25;;;;;;;5.28;4.38;;;18.40;50.60;;;;;;6207974;22;20020;-93
2021/09/07 09:32:55;;;;;;;7.88;4.95;;;18.20;50.90;;;;;;6207352;23;20031;-93
2021/09/07 09:35:25;;;;;;;6.00;4.50;;;18.10;51.50;;;;;;6208597;23;20068;-93
2021/09/07 09:37:56;;;;;;;4.60;3.92;;;18.10;52.10;;;;;;6240245;22;20023;-95
2021/09/07 09:40:22;;;;;;;5.28;4.28;;;18.10;52.20;;;;;;6214938;23;20017;-94
2021/09/07 09:42:56;;;;;;;6.00;4.05;;;18.30;52.00;;;;;;6211784;22;20036;-94
2021/09/07 09:58:22;;;;;;;5.50;4.03;;;18.80;50.70;;;;;;6199096;22;20016;-94
2021/09/07 10:00:52;;;;;;;5.47;4.47;;;18.90;50.60;;;;;;6197813;23;20039;-94
2021/09/07 10:06:01;;;;;;;6.97;3.92;;;19.00;49.80;;;;;;6193188;22;20732;-95
2021/09/07 10:08:27;;;;;;;5.32;3.90;;;19.10;49.60;;;;;;6213534;23;20004;-94
2021/09/07 10:11:04;;;;;;;5.72;4.30;;;19.10;49.50;;;;;;6201307;23;20025;-92
2021/09/07 10:16:15;;;;;;;8.57;4.07;;;19.30;49.20;;;;;;6221109;22;20080;-95
2021/09/07 10:18:52;;;;;;;7.13;4.30;;;19.30;48.90;;;;;;6210137;23;20008;-95
2021/09/07 10:26:43;;;;;;;7.45;4.47;;;19.10;48.30;;;;;;6205180;23;19999;-96
2021/09/07 10:29:41;;;;;;;8.07;4.15;;;19.10;48.20;;;;;;6235458;23;20032;-93
2021/09/07 10:32:28;;;;;;;5.80;4.70;;;19.20;48.20;;;;;;6209917;23;20048;-92
2021/09/07 10:35:06;;;;;;;6.85;4.45;;;19.20;48.00;;;;;;6212018;23;19996;-94
2021/09/07 10:38:10;;;;;;;8.00;4.63;;;19.30;48.00;;;;;;6208346;23;20015;-96
2021/09/07 10:40:48;;;;;;;9.52;6.07;;;19.30;47.60;;;;;;6208501;23;20019;-95
2021/09/07 10:43:50;;;;;;;10.10;5.55;;;19.30;47.60;;;;;;6235245;23;20001;-96
2021/09/07 10:46:49;;;;;;;8.38;5.28;;;19.20;48.20;;;;;;6211819;23;20020;-96
2021/09/07 10:49:40;;;;;;;8.82;5.43;;;19.20;48.20;;;;;;6188349;22;20029;-96
2021/09/07 10:52:50;;;;;;;11.07;5.80;;;19.30;47.80;;;;;;6214124;23;20025;-93
2021/09/07 10:55:20;;;;;;;7.88;5.30;;;19.20;47.60;;;;;;6090984;23;20124;-95
2021/09/07 10:57:55;;;;;;;9.10;5.68;;;19.20;48.60;;;;;;6188839;22;19992;-92
2021/09/07 11:00:26;;;;;;;11.40;6.15;;;19.30;48.00;;;;;;6216627;22;20024;-95
2021/09/07 11:05:54;;;;;;;10.05;5.75;;;19.40;47.70;;;;;;6139710;23;20141;-96
2021/09/07 11:08:32;;;;;;;9.13;5.47;;;19.40;47.80;;;;;;6122345;23;20006;-94
2021/09/07 11:13:54;;;;;;;10.43;5.93;;;19.40;47.20;;;;;;6237120;22;20285;-93
2021/09/07 11:16:21;;;;;;;9.13;5.55;;;19.40;47.30;;;;;;6202807;23;20107;-95
2021/09/07 11:18:59;;;;;;;7.10;5.03;;;19.50;47.30;;;;;;6196301;23;20000;-95
2021/09/07 11:21:27;;;;;;;14.07;5.50;;;19.50;47.30;;;;;;6196436;23;20016;-94
2021/09/07 11:23:53;;;;;;;8.32;5.90;;;19.50;47.40;;;;;;6202180;23;20031;-94
2021/09/07 11:26:22;;;;;;;11.10;5.70;;;19.60;47.30;;;;;;6201493;23;20032;-94
2021/09/07 11:28:49;;;;;;;7.85;4.55;;;19.60;47.50;;;;;;6228940;23;19993;-94
2021/09/07 11:31:15;;;;;;;8.40;4.80;;;19.60;47.60;;;;;;6172019;23;20068;-94
2021/09/07 11:33:43;;;;;;;8.35;5.05;;;19.60;47.80;;;;;;6203499;23;20324;-93
2021/09/07 11:36:11;;;;;;;7.40;4.93;;;19.60;47.60;;;;;;6195584;23;20015;-95
2021/09/07 11:38:42;;;;;;;12.07;5.15;;;19.70;47.60;;;;;;6200344;23;20005;-95
2021/09/07 11:41:11;;;;;;;7.10;4.60;;;19.70;47.10;;;;;;6221435;23;20036;-96
2021/09/07 11:43:57;;;;;;;7.72;4.60;;;19.70;47.00;;;;;;6192032;23;20429;-95
2021/09/07 11:46:32;;;;;;;6.57;4.35;;;19.70;46.80;;;;;;6191485;23;20016;-94
2021/09/07 11:49:22;;;;;;;8.48;4.38;;;19.70;47.20;;;;;;6193220;23;20064;-95
2021/09/07 11:51:54;;;;;;;6.82;3.90;;;19.60;47.30;;;;;;6208293;22;20017;-96
2021/09/07 11:54:21;;;;;;;8.23;4.22;;;19.70;48.10;;;;;;6206547;23;20005;-96
2021/09/07 11:56:57;;;;;;;8.93;4.85;;;19.60;47.50;;;;;;6199482;23;20032;-95
2021/09/07 11:59:23;;;;;;;6.85;4.45;;;19.60;47.70;;;;;;6202446;23;20375;-93
2021/09/07 12:01:51;;;;;;;7.13;4.28;;;19.60;47.90;;;;;;6230791;22;20002;-96
2021/09/07 12:04:18;;;;;;;6.13;4.68;;;19.60;48.00;;;;;;6202402;23;20005;-95
2021/09/07 12:06:47;;;;;;;7.22;3.83;;;19.60;47.80;;;;;;6232422;23;20001;-93
2021/09/07 12:09:27;;;;;;;5.13;4.07;;;19.60;47.60;;;;;;6212750;23;19984;-92
2021/09/07 12:12:06;;;;;;;6.55;4.00;;;19.60;47.10;;;;;;6212516;23;20017;-92
2021/09/07 12:14:46;;;;;;;6.60;3.97;;;19.60;46.80;;;;;;6201823;23;20004;-94
2021/09/07 12:17:16;;;;;;;5.97;3.60;;;19.70;46.70;;;;;;6193574;23;20060;-94
2021/09/07 12:19:48;;;;;;;5.55;3.72;;;19.70;46.90;;;;;;6169511;23;20024;-95
2021/09/07 12:22:22;;;;;;;5.03;3.80;;;19.80;47.30;;;;;;6195686;23;20000;-96
2021/09/07 12:25:02;;;;;;;4.97;3.88;;;19.90;46.50;;;;;;6196434;23;20134;-94
2021/09/07 12:27:31;;;;;;;5.43;3.83;;;20.00;46.40;;;;;;6210394;23;20008;-95
2021/09/07 12:30:07;;;;;;;3.95;3.17;;;20.10;46.20;;;;;;6210167;23;20000;-95
2021/09/07 12:33:02;;;;;;;6.45;3.40;;;20.20;46.30;;;;;;6213621;23;20004;-94
2021/09/07 12:35:59;;;;;;;5.22;3.53;;;20.30;46.20;;;;;;6237811;23;20332;-96
2021/09/07 12:38:27;;;;;;;4.45;3.38;;;20.40;45.90;;;;;;6238276;23;20075;-96
2021/09/07 12:40:58;;;;;;;4.53;3.20;;;20.50;45.70;;;;;;6213294;23;20009;-95
2021/09/07 12:43:33;;;;;;;4.65;3.38;;;20.60;45.80;;;;;;6187175;22;20020;-95
2021/09/07 12:46:07;;;;;;;5.35;3.22;;;20.80;45.40;;;;;;6195562;22;20008;-95
2021/09/07 12:48:36;;;;;;;6.40;3.17;;;20.90;45.00;;;;;;6204754;22;20020;-93
2021/09/07 12:51:03;;;;;;;3.38;2.72;;;21.10;44.70;;;;;;6214953;23;20011;-94
2021/09/07 12:53:35;;;;;;;8.07;4.40;;;21.30;44.40;;;;;;6239767;22;20001;-95
2021/09/07 12:56:18;;;;;;;3.53;2.63;;;21.50;44.00;;;;;;6214703;23;19989;-94
2021/09/07 12:59:15;;;;;;;4.35;3.25;;;21.80;44.20;;;;;;6213330;23;20027;-96
2021/09/07 13:04:09;;;;;;;3.63;2.80;;;22.70;44.60;;;;;;6222136;22;20021;-93
2021/09/07 13:06:34;;;;;;;4.28;2.70;;;23.20;44.00;;;;;;6218794;23;20032;-91
2021/09/07 13:09:00;;;;;;;2.40;2.15;;;23.60;44.20;;;;;;6220503;23;20020;-90
2021/09/07 13:11:26;;;;;;;4.20;3.03;;;24.20;43.90;;;;;;6218416;23;20429;-92
2021/09/07 13:13:53;;;;;;;3.38;2.45;;;24.60;42.60;;;;;;6220788;23;20055;-92
2021/09/07 13:16:21;;;;;;;6.57;2.75;;;25.00;42.50;;;;;;6224515;23;19989;-90
2021/09/07 13:18:50;;;;;;;4.35;2.70;;;25.40;42.30;;;;;;6238229;23;19997;-91
2021/09/07 13:21:20;;;;;;;4.65;2.40;;;25.80;41.50;;;;;;6210517;23;20451;-92
2021/09/07 13:23:46;;;;;;;3.22;2.53;;;26.10;41.20;;;;;;6229762;23;19996;-91
2021/09/07 13:26:12;;;;;;;3.70;2.20;;;26.40;40.50;;;;;;6193155;23;20016;-92
2021/09/07 13:28:38;;;;;;;8.40;3.60;;;26.70;40.20;;;;;;6198977;23;20009;-93
2021/09/07 13:31:04;;;;;;;3.88;2.58;;;27.10;40.00;;;;;;6225457;23;20070;-92
2021/09/07 13:33:36;;;;;;;4.18;2.90;;;27.40;39.50;;;;;;6225147;23;20615;-93
2021/09/07 13:36:03;;;;;;;2.63;2.22;;;27.60;38.20;;;;;;6224449;23;20001;-92
2021/09/07 13:38:31;;;;;;;2.67;2.40;;;27.60;38.50;;;;;;6193663;23;20333;-93
2021/09/07 13:41:01;;;;;;;3.22;2.45;;;27.70;38.40;;;;;;6224399;23;20000;-92
2021/09/07 13:43:27;;;;;;;3.88;2.63;;;27.80;37.90;;;;;;6198241;23;20051;-91
2021/09/07 13:45:54;;;;;;;3.63;2.58;;;27.90;38.00;;;;;;6195973;23;20048;-92